createdAt,value
2022-10-11T00:01:20.016Z,65.35
2022-10-11T00:03:46.546Z,65.37
2022-10-11T00:06:13.119Z,65.58
2022-10-11T00:08:39.696Z,65.49
2022-10-11T00:11:07.678Z,65.61
2022-10-11T00:13:35.097Z,65.51
2022-10-11T00:16:07.813Z,65.59
2022-10-11T00:18:34.612Z,65.55
2022-10-11T00:21:06.729Z,65.63
2022-10-11T00:23:33.526Z,65.61
2022-10-11T00:26:03.058Z,65.69
2022-10-11T00:28:30.155Z,65.49
2022-10-11T00:30:56.846Z,65.60
2022-10-11T00:33:23.507Z,65.68
2022-10-11T00:35:50.168Z,65.53
2022-10-11T00:38:17.120Z,65.68
2022-10-11T00:40:44.418Z,65.57
2022-10-11T00:43:20.474Z,65.65
2022-10-11T00:46:00.941Z,65.62
2022-10-11T00:48:42.708Z,65.60
2022-10-11T00:51:36.128Z,65.54
2022-10-11T00:54:03.988Z,65.80
2022-10-11T00:56:36.451Z,66.02
2022-10-11T00:59:06.289Z,66.04
2022-10-11T01:01:33.031Z,66.19
2022-10-11T01:04:00.639Z,66.21
2022-10-11T01:06:27.453Z,66.20
2022-10-11T01:08:54.237Z,66.43
2022-10-11T01:11:25.905Z,66.53
2022-10-11T01:14:23.442Z,66.38
2022-10-11T01:17:07.926Z,66.49
2022-10-11T01:19:52.967Z,66.51
2022-10-11T01:22:43.690Z,66.42
2022-10-11T01:25:52.255Z,66.63
2022-10-11T01:28:24.718Z,66.59
2022-10-11T01:30:54.744Z,67.06
2022-10-11T01:33:28.910Z,66.98
2022-10-11T01:36:20.198Z,66.90
2022-10-11T01:38:57.325Z,66.79
2022-10-11T01:41:27.616Z,66.79
2022-10-11T01:43:58.940Z,66.94
2022-10-11T01:46:27.225Z,66.90
2022-10-11T01:48:56.971Z,67.04
2022-10-11T01:51:27.165Z,67.23
2022-10-11T01:54:04.585Z,67.23
2022-10-11T01:56:49.725Z,67.11
2022-10-11T01:59:23.216Z,67.07
2022-10-11T02:01:58.450Z,67.10
2022-10-11T02:04:48.628Z,67.18
2022-10-11T02:07:25.170Z,67.29
2022-10-11T02:10:11.228Z,67.19
2022-10-11T02:12:42.123Z,67.45
2022-10-11T02:15:11.735Z,67.43
2022-10-11T02:17:44.765Z,67.41
2022-10-11T02:20:17.286Z,67.34
2022-10-11T02:22:47.705Z,67.38
2022-10-11T02:25:19.836Z,67.52
2022-10-11T02:27:48.787Z,67.41
2022-10-11T02:30:16.170Z,67.31
2022-10-11T02:32:46.449Z,67.43
2022-10-11T02:35:14.038Z,67.41
2022-10-11T02:37:40.482Z,67.18
2022-10-11T02:40:16.675Z,67.32
2022-10-11T02:42:53.527Z,67.34
2022-10-11T02:45:27.700Z,67.47
2022-10-11T02:47:54.869Z,67.41
2022-10-11T02:50:22.210Z,67.52
2022-10-11T02:52:48.798Z,67.50
2022-10-11T02:55:15.535Z,67.54
2022-10-11T02:57:41.998Z,67.66
2022-10-11T03:00:09.308Z,67.45
2022-10-11T03:02:35.875Z,67.63
2022-10-11T03:05:02.550Z,67.67
2022-10-11T03:07:29.036Z,67.43
2022-10-11T03:09:55.519Z,67.55
2022-10-11T03:12:21.988Z,67.74
2022-10-11T03:14:48.558Z,67.60
2022-10-11T03:17:35.177Z,67.50
2022-10-11T03:20:01.654Z,67.62
2022-10-11T03:22:28.143Z,67.83
2022-10-11T03:24:55.942Z,67.85
2022-10-11T03:27:23.987Z,67.76
2022-10-11T03:29:50.515Z,67.93
2022-10-11T03:32:17.339Z,68.04
2022-10-11T03:34:43.827Z,67.90
2022-10-11T03:37:10.372Z,67.84
2022-10-11T03:39:37.954Z,67.98
2022-10-11T03:42:04.704Z,67.95
2022-10-11T03:44:31.161Z,68.15
2022-10-11T03:46:57.694Z,68.13
2022-10-11T03:49:24.793Z,67.92
2022-10-11T03:51:51.285Z,68.01
2022-10-11T03:54:17.842Z,68.02
2022-10-11T03:56:44.473Z,68.32
2022-10-11T03:59:10.936Z,68.27
2022-10-11T04:01:38.547Z,68.15
2022-10-11T04:04:05.594Z,68.11
2022-10-11T04:06:32.334Z,68.37
2022-10-11T04:08:58.927Z,67.95
2022-10-11T04:11:25.435Z,67.99
2022-10-11T04:13:51.893Z,67.93
2022-10-11T04:16:18.384Z,67.88
2022-10-11T04:18:44.905Z,67.96
2022-10-11T04:21:11.409Z,67.86
2022-10-11T04:23:37.899Z,67.82
2022-10-11T04:26:08.272Z,67.80
2022-10-11T04:28:36.036Z,67.72
2022-10-11T04:31:05.059Z,67.81
2022-10-11T04:33:31.742Z,67.90
2022-10-11T04:35:58.301Z,67.84
2022-10-11T04:38:24.772Z,67.97
2022-10-11T04:40:51.510Z,68.10
2022-10-11T04:43:18.935Z,67.94
2022-10-11T04:45:46.050Z,68.15
2022-10-11T04:48:12.674Z,68.10
2022-10-11T04:50:39.149Z,68.14
2022-10-11T04:53:05.685Z,68.18
2022-10-11T04:55:32.266Z,68.10
2022-10-11T04:57:58.722Z,68.14
2022-10-11T05:00:25.218Z,68.25
2022-10-11T05:02:53.028Z,68.18
2022-10-11T05:05:19.474Z,68.22
2022-10-11T05:07:45.975Z,68.24
2022-10-11T05:10:12.480Z,68.14
2022-10-11T05:12:38.932Z,68.37
2022-10-11T05:15:06.262Z,68.33
2022-10-11T05:17:32.785Z,68.43
2022-10-11T05:19:59.274Z,68.42
2022-10-11T05:22:25.942Z,68.45
2022-10-11T05:24:52.598Z,68.65
2022-10-11T05:27:19.111Z,68.88
2022-10-11T05:29:45.770Z,68.80
2022-10-11T05:32:12.394Z,68.89
2022-10-11T05:34:38.894Z,68.75
2022-10-11T05:37:05.678Z,69.03
2022-10-11T05:39:32.472Z,69.05
2022-10-11T05:41:59.000Z,69.24
2022-10-11T05:44:25.636Z,69.37
2022-10-11T05:46:52.234Z,69.55
2022-10-11T05:49:18.683Z,69.46
2022-10-11T05:51:45.199Z,69.36
2022-10-11T05:54:11.831Z,69.44
2022-10-11T05:56:38.314Z,69.44
2022-10-11T05:59:05.262Z,69.38
2022-10-11T06:01:32.042Z,69.26
2022-10-11T06:03:58.609Z,69.29
2022-10-11T06:06:25.181Z,69.36
2022-10-11T06:08:51.980Z,69.18
2022-10-11T06:11:25.275Z,69.12
2022-10-11T06:13:56.169Z,69.18
2022-10-11T06:16:22.676Z,69.11
2022-10-11T06:18:49.197Z,68.76
2022-10-11T06:21:15.708Z,69.04
2022-10-11T06:23:42.268Z,68.84
2022-10-11T06:26:10.366Z,68.91
2022-10-11T06:28:37.429Z,68.81
2022-10-11T06:31:05.812Z,68.90
2022-10-11T06:33:33.487Z,68.90
2022-10-11T06:36:02.204Z,68.74
2022-10-11T06:38:28.900Z,68.86
2022-10-11T06:40:55.481Z,68.82
2022-10-11T06:43:22.756Z,69.05
2022-10-11T06:45:49.457Z,68.94
2022-10-11T06:48:16.085Z,69.12
2022-10-11T06:50:59.032Z,68.94
2022-10-11T06:53:27.344Z,69.05
2022-10-11T06:55:53.886Z,68.94
2022-10-11T06:58:20.418Z,68.94
2022-10-11T07:00:47.052Z,69.10
2022-10-11T07:03:13.569Z,68.98
2022-10-11T07:05:40.041Z,69.08
2022-10-11T07:08:06.601Z,69.02
2022-10-11T07:10:33.152Z,68.99
2022-10-11T07:12:59.618Z,69.33
2022-10-11T07:15:26.108Z,69.15
2022-10-11T07:17:52.735Z,69.38
2022-10-11T07:20:19.246Z,69.60
2022-10-11T07:22:45.720Z,69.44
2022-10-11T07:25:12.257Z,69.63
2022-10-11T07:27:38.733Z,69.55
2022-10-11T07:30:05.865Z,69.90
2022-10-11T07:32:32.349Z,69.68
2022-10-11T07:34:58.885Z,69.74
2022-10-11T07:37:25.415Z,69.72
2022-10-11T07:39:51.891Z,69.71
2022-10-11T07:42:18.379Z,69.76
2022-10-11T07:44:44.866Z,69.88
2022-10-11T07:47:11.649Z,70.19
2022-10-11T07:49:38.202Z,70.17
2022-10-11T07:52:05.221Z,69.73
2022-10-11T07:54:32.842Z,70.00
2022-10-11T07:56:59.624Z,70.03
2022-10-11T07:59:26.197Z,70.20
2022-10-11T08:01:52.734Z,70.09
2022-10-11T08:04:21.288Z,70.11
2022-10-11T08:06:52.528Z,70.21
2022-10-11T08:09:19.899Z,70.41
2022-10-11T08:11:46.362Z,70.37
2022-10-11T08:14:12.853Z,70.15
2022-10-11T08:16:39.433Z,70.24
2022-10-11T08:19:06.972Z,70.28
2022-10-11T08:21:33.727Z,70.29
2022-10-11T08:24:03.609Z,70.31
2022-10-11T08:26:30.424Z,70.16
2022-10-11T08:28:58.913Z,70.12
2022-10-11T08:31:25.536Z,70.19
2022-10-11T08:33:52.033Z,70.09
2022-10-11T08:36:18.526Z,69.94
2022-10-11T08:38:45.036Z,69.88
2022-10-11T08:41:26.712Z,69.45
2022-10-11T08:44:20.952Z,69.21
2022-10-11T08:47:00.330Z,69.07
2022-10-11T08:49:31.062Z,68.79
2022-10-11T08:52:02.615Z,68.46
2022-10-11T08:54:43.240Z,68.40
2022-10-11T08:57:16.114Z,68.29
2022-10-11T08:59:53.431Z,67.99
2022-10-11T09:02:55.642Z,68.04
2022-10-11T09:05:19.803Z,68.30
2022-10-11T09:08:09.030Z,68.20
2022-10-11T09:10:54.044Z,68.56
2022-10-11T09:13:34.538Z,68.61
2022-10-11T09:16:09.880Z,68.83
2022-10-11T09:19:09.424Z,68.84
2022-10-11T09:21:38.605Z,69.44
2022-10-11T09:24:05.173Z,69.33
2022-10-11T09:26:55.473Z,69.23
2022-10-11T09:29:37.390Z,69.26
2022-10-11T09:32:14.019Z,69.55
2022-10-11T09:34:40.606Z,70.22
2022-10-11T09:37:16.077Z,76.86
2022-10-11T09:39:51.455Z,76.54
2022-10-11T09:42:17.969Z,75.41
2022-10-11T09:44:51.668Z,74.28
2022-10-11T09:47:22.665Z,73.38
2022-10-11T09:49:54.540Z,72.69
2022-10-11T09:52:23.201Z,71.78
2022-10-11T09:54:56.866Z,70.92
2022-10-11T09:57:23.466Z,70.08
2022-10-11T10:00:11.951Z,69.65
2022-10-11T10:02:49.679Z,69.24
2022-10-11T10:05:20.427Z,68.64
2022-10-11T10:08:22.959Z,68.71
2022-10-11T10:11:05.723Z,67.93
2022-10-11T10:13:42.081Z,67.20
2022-10-11T10:16:27.720Z,66.35
2022-10-11T10:19:03.645Z,66.10
2022-10-11T10:21:37.215Z,66.18
2022-10-11T10:24:17.346Z,66.07
2022-10-11T10:27:08.377Z,65.69
2022-10-11T10:29:35.964Z,65.27
2022-10-11T10:32:14.864Z,65.33
2022-10-11T10:34:56.793Z,64.67
2022-10-11T10:37:34.527Z,64.62
2022-10-11T10:40:18.369Z,64.22
2022-10-11T10:42:44.969Z,63.98
2022-10-11T10:45:21.206Z,63.33
2022-10-11T10:47:51.438Z,63.04
2022-10-11T10:51:01.057Z,63.04
2022-10-11T10:53:42.109Z,62.40
2022-10-11T10:56:30.331Z,61.69
2022-10-11T10:59:03.178Z,61.77
2022-10-11T11:01:33.607Z,61.25
2022-10-11T11:04:32.456Z,60.03
2022-10-11T11:07:03.053Z,60.02
2022-10-11T11:09:58.597Z,58.94
2022-10-11T11:12:50.422Z,58.06
2022-10-11T11:15:32.247Z,57.93
2022-10-11T11:18:20.336Z,57.68
2022-10-11T11:20:49.699Z,57.32
2022-10-11T11:23:38.724Z,57.04
2022-10-11T11:26:41.993Z,56.79
2022-10-11T11:29:18.497Z,56.09
2022-10-11T11:31:54.325Z,55.70
2022-10-11T11:34:29.149Z,55.18
2022-10-11T11:37:00.096Z,54.79
2022-10-11T11:39:32.706Z,51.23
2022-10-11T11:42:15.915Z,51.72
2022-10-11T11:44:50.326Z,51.43
2022-10-11T11:47:18.076Z,51.22
2022-10-11T11:49:49.567Z,50.81
2022-10-11T11:52:46.213Z,51.43
2022-10-11T11:55:28.442Z,51.29
2022-10-11T11:58:07.146Z,51.44
2022-10-11T12:00:46.173Z,51.41
2022-10-11T12:03:21.591Z,51.57
2022-10-11T12:06:16.176Z,52.23
2022-10-11T12:08:47.143Z,51.85
2022-10-11T12:11:24.113Z,51.03
2022-10-11T12:13:53.221Z,51.00
2022-10-11T12:16:21.215Z,51.03
2022-10-11T12:18:56.832Z,51.68
2022-10-11T12:21:43.356Z,51.04
2022-10-11T12:24:21.854Z,50.52
2022-10-11T12:26:50.175Z,50.32
2022-10-11T12:29:43.597Z,50.16
2022-10-11T12:32:11.195Z,49.45
2022-10-11T12:34:44.117Z,50.08
2022-10-11T12:37:19.713Z,49.08
2022-10-11T12:39:50.863Z,48.98
2022-10-11T12:42:28.278Z,49.84
2022-10-11T12:45:13.339Z,49.86
2022-10-11T12:48:18.551Z,49.25
2022-10-11T12:50:48.066Z,49.47
2022-10-11T12:53:17.703Z,49.51
2022-10-11T12:56:29.088Z,49.38
2022-10-11T12:59:04.096Z,48.47
2022-10-11T13:01:37.358Z,47.35
2022-10-11T13:04:08.121Z,47.62
2022-10-11T13:06:53.765Z,49.31
2022-10-11T13:09:34.760Z,48.54
2022-10-11T13:12:09.549Z,47.45
2022-10-11T13:14:41.546Z,47.19
2022-10-11T13:17:35.782Z,47.37
2022-10-11T13:20:17.401Z,46.84
2022-10-11T13:22:47.517Z,46.86
2022-10-11T13:25:21.257Z,47.27
2022-10-11T13:27:49.187Z,46.70
2022-10-11T13:30:31.554Z,46.66
2022-10-11T13:32:59.711Z,47.11
2022-10-11T13:35:32.908Z,47.13
2022-10-11T13:38:00.487Z,47.38
2022-10-11T13:40:28.053Z,47.50
2022-10-11T13:42:55.223Z,47.41
2022-10-11T13:45:24.366Z,47.48
2022-10-11T13:47:53.383Z,47.16
2022-10-11T13:50:32.051Z,47.36
2022-10-11T13:53:21.289Z,46.82
2022-10-11T13:55:53.234Z,47.13
2022-10-11T13:58:42.844Z,46.55
2022-10-11T14:01:26.832Z,46.03
2022-10-11T14:04:00.482Z,46.16
2022-10-11T14:07:02.688Z,45.81
2022-10-11T14:09:33.882Z,45.16
2022-10-11T14:12:40.610Z,45.04
2022-10-11T14:15:24.585Z,43.37
2022-10-11T14:17:54.035Z,41.85
2022-10-11T14:20:32.278Z,41.45
2022-10-11T14:23:00.342Z,40.43
2022-10-11T14:25:26.900Z,40.99
2022-10-11T14:27:54.781Z,41.63
2022-10-11T14:30:26.543Z,42.29
2022-10-11T14:32:56.743Z,42.99
2022-10-11T14:35:28.892Z,43.21
2022-10-11T14:37:55.392Z,43.23
2022-10-11T14:40:27.510Z,43.33
2022-10-11T14:42:54.141Z,43.27
2022-10-11T14:45:23.410Z,43.69
2022-10-11T14:47:50.245Z,43.36
2022-10-11T14:50:36.599Z,43.42
2022-10-11T14:53:04.677Z,43.40
2022-10-11T14:55:32.154Z,42.88
2022-10-11T14:57:58.707Z,42.61
2022-10-11T15:00:28.425Z,42.84
2022-10-11T15:02:55.972Z,42.20
2022-10-11T15:05:24.427Z,42.27
2022-10-11T15:07:51.739Z,42.31
2022-10-11T15:10:24.302Z,42.60
2022-10-11T15:12:52.706Z,42.92
2022-10-11T15:15:22.583Z,43.40
2022-10-11T15:17:59.675Z,43.86
2022-10-11T15:20:30.151Z,44.10
2022-10-11T15:22:57.685Z,44.08
2022-10-11T15:25:25.528Z,44.38
2022-10-11T15:27:52.752Z,43.98
2022-10-11T15:30:23.352Z,44.38
2022-10-11T15:32:50.457Z,44.61
2022-10-11T15:35:18.047Z,44.59
2022-10-11T15:37:44.756Z,44.80
2022-10-11T15:40:33.733Z,44.13
2022-10-11T15:43:00.524Z,43.79
2022-10-11T15:45:27.466Z,44.17
2022-10-11T15:47:54.117Z,45.41
2022-10-11T15:50:33.931Z,46.08
2022-10-11T15:53:18.626Z,47.41
2022-10-11T15:55:50.357Z,48.28
2022-10-11T15:58:24.324Z,48.42
2022-10-11T16:00:56.205Z,48.33
2022-10-11T16:03:27.200Z,49.30
2022-10-11T16:05:54.753Z,52.60
2022-10-11T16:08:21.480Z,56.20
2022-10-11T16:10:48.474Z,51.37
2022-10-11T16:13:15.841Z,48.65
2022-10-11T16:15:43.275Z,49.39
2022-10-11T16:18:13.252Z,50.46
2022-10-11T16:20:44.762Z,51.20
2022-10-11T16:23:12.333Z,51.60
2022-10-11T16:25:39.493Z,51.32
2022-10-11T16:28:07.953Z,51.10
2022-10-11T16:30:38.831Z,50.79
2022-10-11T16:33:05.630Z,50.98
2022-10-11T16:35:32.761Z,50.98
2022-10-11T16:38:00.819Z,50.90
2022-10-11T16:40:29.915Z,50.96
2022-10-11T16:42:56.414Z,51.05
2022-10-11T16:45:23.557Z,50.98
2022-10-11T16:47:50.365Z,50.87
2022-10-11T16:50:16.850Z,51.18
2022-10-11T16:52:43.393Z,51.54
2022-10-11T16:55:10.059Z,51.73
2022-10-11T16:57:37.814Z,51.75
2022-10-11T17:00:07.429Z,51.49
2022-10-11T17:02:34.162Z,51.92
2022-10-11T17:05:01.124Z,52.16
2022-10-11T17:07:28.276Z,52.31
2022-10-11T17:09:55.127Z,52.31
2022-10-11T17:12:23.257Z,52.77
2022-10-11T17:14:50.187Z,52.98
2022-10-11T17:17:17.811Z,53.13
2022-10-11T17:19:45.495Z,53.09
2022-10-11T17:22:14.542Z,53.58
2022-10-11T17:24:41.629Z,53.43
2022-10-11T17:27:08.933Z,53.59
2022-10-11T17:29:35.968Z,53.98
2022-10-11T17:32:03.160Z,54.19
2022-10-11T17:34:29.732Z,54.47
2022-10-11T17:36:56.285Z,54.42
2022-10-11T17:39:24.077Z,54.73
2022-10-11T17:41:50.592Z,54.74
2022-10-11T17:44:18.468Z,54.72
2022-10-11T17:46:45.392Z,54.91
2022-10-11T17:49:12.725Z,54.95
2022-10-11T17:51:40.299Z,55.02
2022-10-11T17:54:12.288Z,55.09
2022-10-11T17:56:40.889Z,55.34
2022-10-11T17:59:08.531Z,55.59
2022-10-11T18:01:35.739Z,55.53
2022-10-11T18:04:04.860Z,55.70
2022-10-11T18:06:34.229Z,55.76
2022-10-11T18:09:02.410Z,56.06
2022-10-11T18:11:29.339Z,56.31
2022-10-11T18:13:56.496Z,56.26
2022-10-11T18:16:27.073Z,56.58
2022-10-11T18:18:54.747Z,56.57
2022-10-11T18:21:21.323Z,56.70
2022-10-11T18:23:47.951Z,57.04
2022-10-11T18:26:17.117Z,57.18
2022-10-11T18:28:44.765Z,57.24
2022-10-11T18:31:23.618Z,57.26
2022-10-11T18:33:51.112Z,57.32
2022-10-11T18:36:20.815Z,57.32
2022-10-11T18:38:49.361Z,57.40
2022-10-11T18:41:19.723Z,57.25
2022-10-11T18:43:54.671Z,57.44
2022-10-11T18:46:22.478Z,57.38
2022-10-11T18:48:52.273Z,57.44
2022-10-11T18:51:21.573Z,57.74
2022-10-11T18:53:49.358Z,57.93
2022-10-11T18:56:17.685Z,57.91
2022-10-11T18:58:44.766Z,57.69
2022-10-11T19:01:17.014Z,57.97
2022-10-11T19:03:48.092Z,58.20
2022-10-11T19:06:17.710Z,58.20
2022-10-11T19:08:45.803Z,58.20
2022-10-11T19:11:15.603Z,58.15
2022-10-11T19:13:43.385Z,58.49
2022-10-11T19:16:12.213Z,58.35
2022-10-11T19:18:43.899Z,58.65
2022-10-11T19:21:12.787Z,58.44
2022-10-11T19:23:42.158Z,58.66
2022-10-11T19:26:13.922Z,58.71
2022-10-11T19:28:40.718Z,58.79
2022-10-11T19:31:10.102Z,58.91
2022-10-11T19:33:37.205Z,58.78
2022-10-11T19:36:05.740Z,59.18
2022-10-11T19:38:34.512Z,59.18
2022-10-11T19:41:02.182Z,59.16
2022-10-11T19:43:28.668Z,59.62
2022-10-11T19:46:03.095Z,59.59
2022-10-11T19:48:30.142Z,59.91
2022-10-11T19:51:09.105Z,59.98
2022-10-11T19:53:36.074Z,59.98
2022-10-11T19:56:04.652Z,60.33
2022-10-11T19:58:31.473Z,60.47
2022-10-11T20:01:07.183Z,60.47
2022-10-11T20:03:34.485Z,60.34
2022-10-11T20:06:02.588Z,60.37
2022-10-11T20:08:31.319Z,60.30
2022-10-11T20:10:59.700Z,60.56
2022-10-11T20:13:30.052Z,60.68
2022-10-11T20:16:01.166Z,60.61
2022-10-11T20:18:29.718Z,60.62
2022-10-11T20:20:59.382Z,60.61
2022-10-11T20:23:27.735Z,60.74
2022-10-11T20:26:04.212Z,60.65
2022-10-11T20:28:31.973Z,60.61
2022-10-11T20:31:00.535Z,60.81
2022-10-11T20:33:29.097Z,60.91
2022-10-11T20:36:10.560Z,60.91
2022-10-11T20:38:39.765Z,60.96
2022-10-11T20:41:09.127Z,61.07
2022-10-11T20:43:35.693Z,61.14
2022-10-11T20:46:03.483Z,61.21
2022-10-11T20:48:31.818Z,61.33
2022-10-11T20:50:58.712Z,61.25
2022-10-11T20:53:25.542Z,61.48
2022-10-11T20:55:52.369Z,61.40
2022-10-11T20:58:19.237Z,61.57
2022-10-11T21:00:46.834Z,61.51
2022-10-11T21:03:13.856Z,61.76
2022-10-11T21:05:40.579Z,61.86
2022-10-11T21:08:07.330Z,61.87
2022-10-11T21:10:34.551Z,61.78
2022-10-11T21:13:01.170Z,61.97
2022-10-11T21:15:30.486Z,62.14
2022-10-11T21:17:57.384Z,62.22
2022-10-11T21:20:25.036Z,62.20
2022-10-11T21:22:51.745Z,62.27
2022-10-11T21:25:18.226Z,62.73
2022-10-11T21:27:44.714Z,62.53
2022-10-11T21:30:11.238Z,62.58
2022-10-11T21:32:38.060Z,62.84
2022-10-11T21:35:04.777Z,62.82
2022-10-11T21:37:31.299Z,63.10
2022-10-11T21:39:57.825Z,62.96
2022-10-11T21:42:29.315Z,63.21
2022-10-11T21:44:56.101Z,63.07
2022-10-11T21:47:22.594Z,63.25
2022-10-11T21:49:49.157Z,63.27
2022-10-11T21:52:16.082Z,63.00
2022-10-11T21:54:42.555Z,63.01
2022-10-11T21:57:09.177Z,62.97
2022-10-11T21:59:35.622Z,63.20
2022-10-11T22:02:02.381Z,63.22
2022-10-11T22:04:29.033Z,62.94
2022-10-11T22:06:55.693Z,63.23
2022-10-11T22:09:22.275Z,63.26
2022-10-11T22:11:48.798Z,63.11
2022-10-11T22:14:15.982Z,63.39
2022-10-11T22:16:43.681Z,63.42
2022-10-11T22:19:10.239Z,63.49
2022-10-11T22:21:39.187Z,63.40
2022-10-11T22:24:09.362Z,63.52
2022-10-11T22:26:35.936Z,63.47
2022-10-11T22:29:02.698Z,63.32
2022-10-11T22:31:30.274Z,63.63
2022-10-11T22:33:58.621Z,63.55
2022-10-11T22:36:26.673Z,63.93
2022-10-11T22:38:54.108Z,63.91
2022-10-11T22:41:20.747Z,63.72
2022-10-11T22:43:47.240Z,64.00
2022-10-11T22:46:13.831Z,63.96
2022-10-11T22:48:40.545Z,64.09
2022-10-11T22:51:07.331Z,64.15
2022-10-11T22:53:33.845Z,64.15
2022-10-11T22:56:00.656Z,64.14
2022-10-11T22:58:27.349Z,64.30
2022-10-11T23:00:54.043Z,64.59
2022-10-11T23:03:20.654Z,64.44
2022-10-11T23:05:57.579Z,64.53
2022-10-11T23:08:24.545Z,64.42
2022-10-11T23:10:51.297Z,64.55
2022-10-11T23:13:17.970Z,64.55
2022-10-11T23:15:44.569Z,64.62
2022-10-11T23:18:11.556Z,64.94
2022-10-11T23:20:38.805Z,64.85
2022-10-11T23:23:06.356Z,64.62
2022-10-11T23:25:32.850Z,64.86
2022-10-11T23:28:01.127Z,64.95
2022-10-11T23:30:28.792Z,64.66
2022-10-11T23:32:55.381Z,64.81
2022-10-11T23:35:21.892Z,65.11
2022-10-11T23:37:48.577Z,65.05
2022-10-11T23:40:15.456Z,64.83
2022-10-11T23:42:42.085Z,64.90
2022-10-11T23:45:09.113Z,64.91
2022-10-11T23:47:35.827Z,64.96
2022-10-11T23:50:02.482Z,64.86
2022-10-11T23:52:28.948Z,65.01
2022-10-11T23:54:56.192Z,65.02
2022-10-11T23:57:22.648Z,64.96
2022-10-11T23:59:49.369Z,65.15
